Terminal Aerodrome Forecast
Issued by NWS

Home | Current Version | Previous Version | Text Only | Print | Product List | Glossary On
Versions: 1 2 3 4 5 6 7 8 9 10 11 12 13 14 15 16 17 18 19 20 21 22
000
FTUS42 KFFC 061723
TAFPDK
TAF
KPDK 061723Z 0618/0718 26005KT P6SM VCSH BKN035
     FM062100 26006KT P6SM SCT050
     FM070200 26003KT P6SM FEW250
     FM071000 28003KT 4SM BR SCT150
     FM071600 28006KT P6SM SCT040=

USA.gov is the U.S. government's official web portal to all federal, state and local government web resources and services.